Santa Maria Manuela — CSKO — position and weather

sailwx.info

Track history (hours):
 
Tides and Currents Weather Stations Pressure Air Temp Water Temp Dewpoint Dewpoint Depression Visibility Wind Speed Wind Dir Waves Ship Positions

Santa Maria Manuela

Last reported at 2019-Aug-24 07:00 UTC. Time now 2019-Aug-24 07:10 UTC.
Position N 38°57' W 029°33'.

Length 68 m; draft 4.3 m.

Type: Sailing vessel. MMSI: 255806006.

Date/timePositionNaut miles runAvg speedWind from/ knotsBaromVisibWave heightAir tempDewpointWater temp
2019-Aug-24 07:00N 38°57' W 029°33'3 5.4
2019-Aug-24 06:30N 38°56' W 029°30'3 5.3
2019-Aug-24 06:00N 38°55' W 029°27'3 5.3
2019-Aug-24 05:30N 38°54' W 029°24'3 5.4
2019-Aug-24 05:00N 38°53' W 029°21'3 5.2
2019-Aug-24 04:30N 38°52' W 029°17'3 5.4
2019-Aug-24 04:00N 38°51' W 029°14'3 5.4
2019-Aug-24 03:30N 38°50' W 029°11'3 6.0
2019-Aug-24 03:00N 38°49' W 029°07'3 5.8
2019-Aug-24 02:30N 38°48' W 029°04'3 5.7
2019-Aug-24 02:00N 38°47' W 029°00'3 5.6
2019-Aug-24 01:30N 38°46' W 028°57'3 5.4
2019-Aug-24 01:00N 38°45' W 028°54'3 5.5
2019-Aug-24 00:30N 38°44' W 028°50'3 5.4
2019-Aug-24 00:00N 38°43' W 028°47'3 5.3
2019-Aug-23 23:30N 38°42' W 028°44'3 5.3
2019-Aug-23 23:00N 38°42' W 028°41'3 5.6
2019-Aug-23 22:30N 38°41' W 028°37'2 5.0
2019-Aug-23 22:00N 38°39' W 028°35'3 5.0
2019-Aug-23 21:30N 38°36' W 028°34'2 4.8
2019-Aug-23 21:00N 38°34' W 028°34'2 4.0
2019-Aug-23 20:31N 38°32' W 028°35'2 3.2
2019-Aug-23 20:00N 38°32' W 028°37'0 0.0
2019-Aug-23 19:27N 38°32' W 028°37'0 0.0
2019-Aug-23 18:57N 38°32' W 028°37'0 0.0
2019-Aug-23 18:30N 38°32' W 028°37'0 0.0
2019-Aug-23 17:57N 38°32' W 028°37'0 0.0
2019-Aug-23 17:27N 38°32' W 028°37'0 0.0
2019-Aug-23 17:00N 38°32' W 028°37'0 0.0
2019-Aug-23 16:31N 38°32' W 028°37'0 0.0
2019-Aug-23 15:57N 38°32' W 028°37'0 0.0
2019-Aug-23 15:28N 38°32' W 028°37'0 0.0
2019-Aug-23 14:58N 38°32' W 028°37'0 0.0
2019-Aug-23 14:28N 38°32' W 028°37'0 0.0
2019-Aug-23 13:58N 38°32' W 028°37'0 0.0
2019-Aug-23 13:28N 38°32' W 028°37'0 0.0
2019-Aug-23 12:58N 38°32' W 028°37'0 0.0
2019-Aug-23 12:28N 38°32' W 028°37'0 0.0
2019-Aug-23 11:58N 38°32' W 028°37'0 0.0
2019-Aug-23 11:25N 38°32' W 028°37'0 0.0
2019-Aug-23 11:01N 38°32' W 028°37'0 0.0
2019-Aug-23 10:31N 38°32' W 028°37'0 0.0
2019-Aug-23 09:57N 38°32' W 028°37'0 0.0
2019-Aug-23 09:24N 38°32' W 028°37'0 0.0
2019-Aug-23 09:00N 38°32' W 028°37'0 0.0
2019-Aug-23 08:24N 38°32' W 028°37'0 0.0
2019-Aug-23 07:54N 38°32' W 028°37'0 0.0
2019-Aug-23 07:30N 38°32' W 028°37'1 2.0
2019-Aug-23 07:00N 38°32' W 028°36'2 3.0
2019-Aug-23 06:30N 38°33' W 028°35'2 3.1
2019-Aug-23 06:00N 38°34' W 028°34'2 3.1
2019-Aug-23 05:30N 38°35' W 028°33'1 2.9
2019-Aug-23 05:00N 38°36' W 028°31'1 2.6
2019-Aug-23 04:30N 38°36' W 028°29'1 2.3
2019-Aug-23 04:00N 38°36' W 028°28'1 2.1
2019-Aug-23 03:30N 38°37' W 028°27'1 2.0
2019-Aug-23 03:00N 38°37' W 028°26'1 2.1
2019-Aug-23 02:30N 38°37' W 028°24'1 2.1
2019-Aug-23 02:00N 38°38' W 028°23'1 2.3
2019-Aug-23 01:30N 38°38' W 028°22'1 2.4
2019-Aug-23 01:00N 38°38' W 028°20'1 2.2
2019-Aug-23 00:30N 38°39' W 028°19'2 3.3
2019-Aug-23 00:00N 38°39' W 028°17'2 3.5
2019-Aug-22 23:30N 38°40' W 028°15'2 4.1
2019-Aug-22 23:01N 38°40' W 028°12'0 0.5
2019-Aug-22 22:26N 38°40' W 028°12'0 0.0
2019-Aug-22 21:59N 38°40' W 028°12'0 0.0
2019-Aug-22 21:29N 38°40' W 028°12'0 0.0
2019-Aug-22 20:53N 38°40' W 028°12'0 0.0
2019-Aug-22 20:29N 38°40' W 028°12'0 0.0
2019-Aug-22 19:59N 38°40' W 028°12'0 0.0
2019-Aug-22 19:29N 38°40' W 028°12'0 0.0
2019-Aug-22 18:53N 38°40' W 028°12'0 0.0
2019-Aug-22 18:29N 38°40' W 028°12'0 0.0
2019-Aug-22 17:59N 38°40' W 028°12'0 0.0
2019-Aug-22 17:29N 38°40' W 028°12'0 0.0
2019-Aug-22 16:59N 38°40' W 028°12'0 0.0
2019-Aug-22 16:29N 38°40' W 028°12'0 0.0
2019-Aug-22 15:56N 38°40' W 028°12'0 0.0
2019-Aug-22 15:29N 38°40' W 028°12'0 0.0
2019-Aug-22 14:59N 38°40' W 028°12'0 0.0
2019-Aug-22 14:29N 38°40' W 028°12'0 0.0
2019-Aug-22 13:59N 38°40' W 028°12'0 0.0
2019-Aug-22 13:26N 38°40' W 028°12'0 0.0
2019-Aug-22 12:59N 38°40' W 028°12'0 0.0
2019-Aug-22 12:29N 38°40' W 028°12'0 0.0
2019-Aug-22 11:59N 38°40' W 028°12'0 0.0
2019-Aug-22 11:29N 38°40' W 028°12'0 0.0
2019-Aug-22 10:56N 38°40' W 028°12'0 0.0
2019-Aug-22 10:29N 38°40' W 028°12'0 0.0
2019-Aug-22 09:59N 38°40' W 028°12'0 0.0
2019-Aug-22 09:23N 38°40' W 028°12'0 0.0
2019-Aug-22 09:00N 38°40' W 028°12'0 0.0
2019-Aug-22 08:30N 38°40' W 028°12'0 0.1
2019-Aug-22 08:00N 38°40' W 028°12'1 2.0
2019-Aug-22 07:30N 38°40' W 028°13'1 2.2
2019-Aug-22 07:00N 38°40' W 028°14'1 2.3
2019-Aug-22 06:30N 38°40' W 028°16'1 2.1
2019-Aug-22 06:00N 38°41' W 028°17'1 2.0
2019-Aug-22 05:30N 38°40' W 028°16'2 3.4
2019-Aug-22 05:00N 38°39' W 028°14'2 3.6
2019-Aug-22 04:30N 38°39' W 028°12'1 2.8
2019-Aug-22 04:01N 38°38' W 028°10'1 2.1
2019-Aug-22 03:30N 38°38' W 028°09'1 2.1
2019-Aug-22 03:00N 38°37' W 028°08'1 2.1
2019-Aug-22 02:30N 38°36' W 028°07'1 2.2
2019-Aug-22 02:00N 38°36' W 028°06'1 2.1
2019-Aug-22 01:30N 38°36' W 028°04'1 2.4
2019-Aug-22 01:00N 38°35' W 028°03'1 2.7
2019-Aug-22 00:30N 38°34' W 028°02'1 2.6
2019-Aug-22 00:00N 38°33' W 028°00'1 2.7
2019-Aug-21 23:30N 38°33' W 027°59'1 3.0
2019-Aug-21 23:00N 38°31' W 027°58'1 2.9
2019-Aug-21 22:30N 38°30' W 027°58'2 3.4
2019-Aug-21 22:00N 38°28' W 027°57'1 2.8
2019-Aug-21 21:30N 38°27' W 027°57'1 1.3
2019-Aug-21 21:00N 38°27' W 027°58'1 1.0
2019-Aug-21 20:31N 38°27' W 027°57'1 2.7
2019-Aug-21 20:00N 38°27' W 027°56'2 3.2
2019-Aug-21 19:30N 38°25' W 027°55'2 3.6
2019-Aug-21 19:00N 38°24' W 027°53'2 3.7
2019-Aug-21 18:30N 38°22' W 027°52'2 3.9
2019-Aug-21 18:00N 38°21' W 027°51'2 3.4
2019-Aug-21 17:30N 38°20' W 027°49'2 4.0
2019-Aug-21 17:01N 38°18' W 027°48'2 3.9
2019-Aug-21 16:30N 38°19' W 027°45'2 4.3
2019-Aug-21 16:00N 38°19' W 027°43'2 4.3
2019-Aug-21 15:30N 38°21' W 027°40'2 4.1
2019-Aug-21 15:00N 38°21' W 027°38'2 4.0
2019-Aug-21 14:30N 38°22' W 027°35'2 4.8
2019-Aug-21 14:00N 38°22' W 027°33'3 5.2
2019-Aug-21 13:30N 38°23' W 027°29'3 5.2
2019-Aug-21 13:00N 38°24' W 027°26'3 5.4
2019-Aug-21 12:30N 38°26' W 027°23'3 5.3
2019-Aug-21 12:01N 38°27' W 027°20'3 5.4
2019-Aug-21 11:30N 38°28' W 027°17'3 5.3
2019-Aug-21 11:00N 38°29' W 027°14'3 5.2
2019-Aug-21 10:30N 38°30' W 027°11'5 4.6
2019-Aug-21 09:24N 38°32' W 027°05'2 5.2
2019-Aug-21 08:57N 38°33' W 027°02'2 4.7
2019-Aug-21 08:30N 38°33' W 026°60'3 5.2
2019-Aug-21 08:01N 38°31' W 026°57'2 4.4
2019-Aug-21 07:30N 38°30' W 026°55'2 4.5
2019-Aug-21 07:00N 38°29' W 026°52'2 4.8
2019-Aug-21 06:30N 38°27' W 026°50'2 4.8
2019-Aug-21 06:00N 38°25' W 026°48'3 5.1
2019-Aug-21 05:30N 38°23' W 026°46'2 4.8
2019-Aug-21 05:00N 38°22' W 026°44'2 4.7
2019-Aug-21 04:30N 38°20' W 026°42'2 4.5
2019-Aug-21 04:00N 38°19' W 026°39'2 4.5
2019-Aug-21 03:30N 38°17' W 026°37'2 4.6
2019-Aug-21 03:00N 38°16' W 026°35'2 5.0
2019-Aug-21 02:30N 38°14' W 026°32'2 4.6
2019-Aug-21 02:00N 38°13' W 026°30'2 4.8
2019-Aug-21 01:30N 38°11' W 026°28'2 4.8
2019-Aug-21 01:00N 38°10' W 026°25'2 4.5
2019-Aug-21 00:30N 38°09' W 026°23'2 4.3
2019-Aug-21 00:00N 38°07' W 026°21'2 3.9
2019-Aug-20 23:29N 38°06' W 026°19'2 3.9
2019-Aug-20 23:00N 38°05' W 026°17'2 4.1
2019-Aug-20 22:30N 38°04' W 026°15'2 4.6
2019-Aug-20 22:00N 38°03' W 026°12'2 4.4
2019-Aug-20 21:30N 38°01' W 026°10'2 4.4
2019-Aug-20 21:01N 38°00' W 026°08'2 3.9
2019-Aug-20 20:31N 37°59' W 026°06'2 4.3
2019-Aug-20 20:00N 37°58' W 026°03'2 4.0
2019-Aug-20 19:30N 37°56' W 026°01'3 5.9
2019-Aug-20 19:00N 37°54' W 025°59'3 6.6
2019-Aug-20 18:30N 37°52' W 025°56'3 6.0
2019-Aug-20 18:00N 37°50' W 025°53'3 5.7
2019-Aug-20 17:30N 37°48' W 025°51'3 6.3
2019-Aug-20 17:00N 37°45' W 025°48'3 6.5
2019-Aug-20 16:30N 37°44' W 025°44'3 6.4
2019-Aug-20 16:00N 37°43' W 025°41'2 3.2
2019-Aug-20 15:30N 37°44' W 025°40'0 0.3
2019-Aug-20 15:00N 37°44' W 025°40'0 0.0
2019-Aug-20 14:29N 37°44' W 025°40'0 0.0
2019-Aug-20 14:00N 37°44' W 025°40'0 0.0
2019-Aug-20 13:30N 37°44' W 025°40'0 0.0
2019-Aug-20 13:00N 37°44' W 025°40'0 0.0
2019-Aug-20 12:29N 37°44' W 025°40'0 0.0
2019-Aug-20 11:59N 37°44' W 025°40'0 0.0
2019-Aug-20 11:29N 37°44' W 025°40'0 0.0
2019-Aug-20 11:00N 37°44' W 025°40'0 0.0
2019-Aug-20 10:29N 37°44' W 025°40'0 0.0
2019-Aug-20 10:00N 37°44' W 025°40'0 0.0
2019-Aug-20 09:29N 37°44' W 025°40'0 0.0
2019-Aug-20 08:59N 37°44' W 025°40'0 0.0
2019-Aug-20 08:29N 37°44' W 025°40'0 0.0
2019-Aug-20 07:59N 37°44' W 025°40'0 0.0
2019-Aug-20 07:29N 37°44' W 025°40'0 0.0
2019-Aug-20 06:59N 37°44' W 025°40'0 0.0
2019-Aug-20 06:29N 37°44' W 025°40'0 0.0
2019-Aug-20 05:59N 37°44' W 025°40'0 0.0
2019-Aug-20 05:30N 37°44' W 025°40'0 0.0
2019-Aug-20 04:59N 37°44' W 025°40'0 0.0
2019-Aug-20 04:29N 37°44' W 025°40'0 0.0
2019-Aug-20 03:59N 37°44' W 025°40'0 0.0
2019-Aug-20 03:29N 37°44' W 025°40'0 0.0
2019-Aug-20 02:59N 37°44' W 025°40'0 0.0
2019-Aug-20 02:29N 37°44' W 025°40'0 0.0
2019-Aug-20 01:59N 37°44' W 025°40'0 0.0
2019-Aug-20 01:29N 37°44' W 025°40'0 0.0
2019-Aug-20 00:59N 37°44' W 025°40'0 0.0
2019-Aug-20 00:29N 37°44' W 025°40'0 0.0
2019-Aug-19 23:59N 37°44' W 025°40'0 0.0
2019-Aug-19 23:29N 37°44' W 025°40'0 0.0
2019-Aug-19 22:59N 37°44' W 025°40'0 0.0
2019-Aug-19 22:29N 37°44' W 025°40'0 0.0
2019-Aug-19 21:59N 37°44' W 025°40'0 0.0
2019-Aug-19 21:29N 37°44' W 025°40'0 0.0
2019-Aug-19 20:59N 37°44' W 025°40'0 0.0
2019-Aug-19 20:29N 37°44' W 025°40'0 0.0
2019-Aug-19 19:59N 37°44' W 025°40'0 0.0
2019-Aug-19 19:29N 37°44' W 025°40'0 0.0
2019-Aug-19 18:59N 37°44' W 025°40'0 0.0
2019-Aug-19 18:29N 37°44' W 025°40'0 0.0
2019-Aug-19 17:59N 37°44' W 025°40'0 0.0
2019-Aug-19 17:29N 37°44' W 025°40'0 0.0
2019-Aug-19 16:59N 37°44' W 025°40'0 0.0
2019-Aug-19 16:29N 37°44' W 025°40'0 0.0
2019-Aug-19 15:59N 37°44' W 025°40'0 0.0
2019-Aug-19 15:29N 37°44' W 025°40'0 0.0
2019-Aug-19 14:59N 37°44' W 025°40'0 0.0
2019-Aug-19 14:29N 37°44' W 025°40'0 0.0
2019-Aug-19 13:59N 37°44' W 025°40'0 0.0
2019-Aug-19 13:29N 37°44' W 025°40'0 0.0
2019-Aug-19 12:59N 37°44' W 025°40'0 0.0
2019-Aug-19 12:29N 37°44' W 025°40'0 0.0
2019-Aug-19 11:59N 37°44' W 025°40'0 0.0
2019-Aug-19 11:29N 37°44' W 025°40'0 0.0
2019-Aug-19 10:59N 37°44' W 025°40'0 0.0
2019-Aug-19 10:29N 37°44' W 025°40'0 0.0
2019-Aug-19 10:00N 37°44' W 025°40'1 1.1
2019-Aug-19 09:30N 37°44' W 025°39'1 1.3
2019-Aug-19 09:00N 37°44' W 025°39'2 4.4
2019-Aug-19 08:30N 37°43' W 025°42'2 4.5
2019-Aug-19 08:00N 37°42' W 025°44'2 4.6
2019-Aug-19 07:30N 37°42' W 025°47'2 4.3
2019-Aug-19 07:00N 37°43' W 025°50'3 5.5
2019-Aug-19 06:30N 37°45' W 025°53'2 4.7
2019-Aug-19 06:00N 37°46' W 025°55'3 5.8
2019-Aug-19 05:30N 37°43' W 025°57'3 5.4
2019-Aug-19 05:00N 37°41' W 025°59'2 4.1
2019-Aug-19 04:31N 37°41' W 026°02'3 5.0
2019-Aug-19 04:01N 37°42' W 026°05'2 4.0
2019-Aug-19 03:31N 37°42' W 026°08'2 4.4
2019-Aug-19 03:00N 37°43' W 026°10'2 4.8
2019-Aug-19 02:30N 37°45' W 026°12'2 4.8
2019-Aug-19 02:00N 37°47' W 026°14'2 4.1
2019-Aug-19 01:30N 37°48' W 026°16'2 3.9
2019-Aug-19 01:00N 37°49' W 026°18'3 5.1
2019-Aug-19 00:30N 37°51' W 026°20'2 4.1
2019-Aug-19 00:00N 37°52' W 026°22'2 3.8
2019-Aug-18 23:30N 37°54' W 026°24'2 4.0
2019-Aug-18 23:01N 37°55' W 026°26'2 4.4
2019-Aug-18 22:30N 37°57' W 026°28'2 4.5
2019-Aug-18 22:01N 37°58' W 026°30'2 4.2
2019-Aug-18 21:30N 38°00' W 026°31'2 4.4
2019-Aug-18 21:00N 38°02' W 026°33'3 5.5
2019-Aug-18 20:30N 38°04' W 026°35'3 5.2
2019-Aug-18 20:00N 38°05' W 026°38'2 4.9
2019-Aug-18 19:30N 38°07' W 026°40'2 4.7
2019-Aug-18 19:00N 38°08' W 026°43'2 4.8
2019-Aug-18 18:30N 38°10' W 026°45'2 3.6
2019-Aug-18 18:00N 38°11' W 026°46'2 4.0
2019-Aug-18 17:30N 38°13' W 026°45'2 4.2
2019-Aug-18 17:00N 38°15' W 026°44'2 3.9
2019-Aug-18 16:30N 38°17' W 026°43'2 4.3
2019-Aug-18 16:00N 38°19' W 026°43'2 4.1
2019-Aug-18 15:30N 38°21' W 026°43'2 3.7
2019-Aug-18 15:00N 38°23' W 026°44'2 3.3
2019-Aug-18 14:30N 38°25' W 026°45'2 3.1
2019-Aug-18 14:00N 38°26' W 026°45'2 3.8
2019-Aug-18 13:30N 38°28' W 026°46'2 3.2
2019-Aug-18 13:01N 38°29' W 026°46'2 3.2
2019-Aug-18 12:30N 38°31' W 026°47'2 3.5
2019-Aug-18 12:00N 38°33' W 026°47'2 4.4
2019-Aug-18 11:30N 38°35' W 026°48'2 4.0
2019-Aug-18 11:00N 38°37' W 026°49'2 3.4
2019-Aug-18 10:30N 38°38' W 026°49'1 2.0
2019-Aug-18 09:59N 38°39' W 026°50'1 3.0
2019-Aug-18 09:30N 38°40' W 026°51'2 4.7
2019-Aug-18 09:00N 38°41' W 026°54'14 4.7
2019-Aug-18 05:59N 38°50' W 027°09'2 4.0
2019-Aug-18 05:30N 38°50' W 027°11'2 4.0
2019-Aug-18 05:00N 38°51' W 027°14'2 3.9
2019-Aug-18 04:30N 38°51' W 027°16'2 4.2
2019-Aug-18 04:00N 38°52' W 027°19'2 4.4
2019-Aug-18 03:30N 38°53' W 027°21'2 4.1
2019-Aug-18 03:00N 38°53' W 027°24'2 4.3
2019-Aug-18 02:30N 38°54' W 027°26'3 5.1
2019-Aug-18 02:00N 38°55' W 027°29'3 5.2
2019-Aug-18 01:30N 38°56' W 027°32'3 5.3
2019-Aug-18 01:00N 38°57' W 027°35'3 5.0
2019-Aug-18 00:30N 38°58' W 027°39'2 4.6
2019-Aug-18 00:01N 38°58' W 027°41'2 4.5
2019-Aug-17 23:30N 38°59' W 027°44'2 4.4
2019-Aug-17 23:00N 38°60' W 027°47'2 4.6
2019-Aug-17 22:30N 39°01' W 027°50'3 4.6
2019-Aug-17 21:54N 39°02' W 027°53'2 5.0
2019-Aug-17 21:30N 39°02' W 027°55'2 4.0
2019-Aug-17 20:55N 39°03' W 027°58'0 0.0
2019-Aug-17 20:29N 39°03' W 027°58'0 0.0
2019-Aug-17 19:59N 39°03' W 027°58'0 0.0
2019-Aug-17 19:23N 39°03' W 027°58'0 0.0
2019-Aug-17 18:53N 39°03' W 027°58'0 0.0
2019-Aug-17 18:20N 39°03' W 027°58'0 0.0
2019-Aug-17 17:29N 39°03' W 027°58'0 0.0
2019-Aug-17 16:59N 39°03' W 027°58'0 0.0
2019-Aug-17 16:29N 39°03' W 027°58'0 0.0
2019-Aug-17 15:56N 39°03' W 027°58'0 0.0
2019-Aug-17 15:29N 39°03' W 027°58'0 0.0
2019-Aug-17 14:56N 39°03' W 027°58'0 0.0
2019-Aug-17 14:23N 39°03' W 027°58'0 0.0
2019-Aug-17 13:56N 39°03' W 027°58'0 0.0
2019-Aug-17 13:29N 39°03' W 027°58'0 0.0
2019-Aug-17 12:59N 39°03' W 027°58'0 0.0
2019-Aug-17 12:26N 39°03' W 027°58'0 0.0
2019-Aug-17 11:59N 39°03' W 027°58'0 0.0
2019-Aug-17 11:29N 39°03' W 027°58'0 0.0
2019-Aug-17 10:55N 39°03' W 027°58'0 0.0
2019-Aug-17 10:25N 39°03' W 027°58'0 0.0
2019-Aug-17 09:55N 39°03' W 027°58'0 0.0
2019-Aug-17 09:29N 39°03' W 027°58'0 0.0
2019-Aug-17 09:00N 39°03' W 027°58'0 0.0
2019-Aug-17 08:30N 39°03' W 027°58'2 3.1
2019-Aug-17 08:00N 39°03' W 027°56'1 2.3
2019-Aug-17 07:30N 39°02' W 027°55'1 1.4
2019-Aug-17 07:00N 39°01' W 027°55'1 1.9
2019-Aug-17 06:30N 39°00' W 027°55'1 2.5
2019-Aug-17 06:00N 38°59' W 027°56'2 3.5
2019-Aug-17 05:30N 38°59' W 027°58'2 4.2
2019-Aug-17 05:01N 38°57' W 028°00'2 3.9
2019-Aug-17 04:31N 38°56' W 028°02'2 3.8
2019-Aug-17 04:00N 38°55' W 028°04'2 3.8
2019-Aug-17 03:30N 38°54' W 028°06'2 4.1
2019-Aug-17 03:00N 38°53' W 028°09'2 4.2
2019-Aug-17 02:30N 38°52' W 028°11'2 4.8
2019-Aug-17 02:00N 38°51' W 028°14'3 5.4
2019-Aug-17 01:30N 38°50' W 028°17'3 5.4
2019-Aug-17 01:00N 38°48' W 028°19'3 5.7
2019-Aug-17 00:30N 38°46' W 028°22'3 5.9
2019-Aug-17 00:00N 38°43' W 028°24'3 6.1
2019-Aug-16 23:30N 38°41' W 028°26'4 6.9
2019-Aug-16 23:00N 38°38' W 028°29'3 7.0
2019-Aug-16 22:30N 38°36' W 028°32'3 6.6
2019-Aug-16 22:00N 38°33' W 028°35'2 4.5
2019-Aug-16 21:30N 38°32' W 028°37'0 0.0
2019-Aug-16 17:33N 38°32' W 028°37'0 0.0
2019-Aug-16 17:24N 38°32' W 028°37'0 0.0
2019-Aug-16 17:00N 38°32' W 028°37'0 0.0
2019-Aug-16 16:30N 38°32' W 028°37'0 0.0
2019-Aug-16 15:54N 38°32' W 028°37'0 0.0
2019-Aug-16 15:30N 38°32' W 028°37'0 0.0
2019-Aug-16 15:00N 38°32' W 028°37'0 0.0
2019-Aug-16 14:30N 38°32' W 028°37'0 0.0
2019-Aug-16 13:57N 38°32' W 028°37'0 0.0
2019-Aug-16 13:30N 38°32' W 028°37'0 0.0
2019-Aug-16 13:00N 38°32' W 028°37'0 0.0
2019-Aug-16 12:30N 38°32' W 028°37'0 0.0
2019-Aug-16 12:00N 38°32' W 028°37'0 0.0
2019-Aug-16 11:30N 38°32' W 028°37'0 0.0
2019-Aug-16 10:57N 38°32' W 028°37'0 0.0
2019-Aug-16 10:30N 38°32' W 028°37'0 0.0
2019-Aug-16 10:00N 38°32' W 028°37'0 0.0
2019-Aug-16 09:24N 38°32' W 028°37'0 0.0
2019-Aug-16 09:00N 38°32' W 028°37'0 0.0
2019-Aug-16 08:27N 38°32' W 028°37'0 0.0
2019-Aug-16 07:57N 38°32' W 028°37'0 0.2
2019-Aug-16 07:30N 38°32' W 028°37'1 2.2
2019-Aug-16 07:00N 38°32' W 028°36'1 2.2
2019-Aug-16 06:30N 38°32' W 028°35'2 3.3
2019-Aug-16 06:00N 38°34' W 028°34'1 1.9
2019-Aug-16 05:30N 38°35' W 028°33'1 2.3
2019-Aug-16 05:00N 38°35' W 028°32'2 3.3
2019-Aug-16 04:31N 38°36' W 028°30'2 3.4
2019-Aug-16 04:01N 38°37' W 028°28'2 3.2
2019-Aug-16 03:31N 38°37' W 028°26'1 2.4
2019-Aug-16 03:00N 38°37' W 028°25'1 2.2
2019-Aug-16 02:30N 38°38' W 028°23'1 2.8
2019-Aug-16 02:00N 38°38' W 028°22'1 1.9
2019-Aug-16 01:30N 38°38' W 028°21'1 1.9
2019-Aug-16 01:00N 38°39' W 028°19'1 2.0
2019-Aug-16 00:30N 38°39' W 028°18'1 2.6
2019-Aug-16 00:00N 38°39' W 028°17'1 3.0
2019-Aug-15 23:30N 38°40' W 028°15'2 3.1
2019-Aug-15 23:00N 38°40' W 028°13'1 1.3
2019-Aug-15 22:29N 38°40' W 028°12'0 0.0
2019-Aug-15 21:59N 38°40' W 028°12'0 0.0
2019-Aug-15 21:29N 38°40' W 028°12'0 0.0
2019-Aug-15 20:59N 38°40' W 028°12'0 0.0
2019-Aug-15 20:29N 38°40' W 028°12'0 0.0
2019-Aug-15 19:59N 38°40' W 028°12'0 0.0
2019-Aug-15 19:29N 38°40' W 028°12'0 0.0
2019-Aug-15 18:56N 38°40' W 028°12'0 0.0
2019-Aug-15 18:29N 38°40' W 028°12'0 0.0
2019-Aug-15 17:59N 38°40' W 028°12'0 0.0
2019-Aug-15 17:29N 38°40' W 028°12'0 0.0
2019-Aug-15 16:56N 38°40' W 028°12'0 0.0
2019-Aug-15 16:29N 38°40' W 028°12'0 0.0
2019-Aug-15 15:59N 38°40' W 028°12'0 0.0
2019-Aug-15 15:23N 38°40' W 028°12'0 0.0
2019-Aug-15 14:59N 38°40' W 028°12'0 0.1
2019-Aug-15 14:29N 38°40' W 028°12'0 0.0
2019-Aug-15 13:59N 38°40' W 028°12'0 0.1
2019-Aug-15 13:29N 38°40' W 028°12'0 0.0
2019-Aug-15 12:56N 38°40' W 028°12'0 0.0
2019-Aug-15 12:29N 38°40' W 028°12'0 0.0
2019-Aug-15 11:59N 38°40' W 028°12'0 0.0
2019-Aug-15 11:29N 38°40' W 028°12'0 0.0
2019-Aug-15 10:59N 38°40' W 028°12'0 0.1
2019-Aug-15 10:29N 38°40' W 028°12'0 0.0
2019-Aug-15 09:59N 38°40' W 028°12'0 0.0
2019-Aug-15 09:29N 38°40' W 028°12'0 0.0
2019-Aug-15 08:59N 38°40' W 028°12'0 0.0
2019-Aug-15 08:30N 38°40' W 028°12'0 0.9
2019-Aug-15 08:00N 38°40' W 028°12'2 3.8
2019-Aug-15 07:30N 38°38' W 028°11'2 4.4
2019-Aug-15 07:00N 38°37' W 028°09'2 3.7
2019-Aug-15 06:30N 38°36' W 028°07'2 3.6
2019-Aug-15 06:00N 38°35' W 028°05'2 3.2
2019-Aug-15 05:30N 38°34' W 028°03'2 3.8
2019-Aug-15 05:00N 38°33' W 028°01'2 4.0
2019-Aug-15 04:30N 38°33' W 027°58'2 4.4
2019-Aug-15 04:00N 38°32' W 027°56'2 4.5
2019-Aug-15 03:30N 38°31' W 027°53'2 4.4
2019-Aug-15 03:00N 38°30' W 027°51'2 4.1
2019-Aug-15 02:30N 38°30' W 027°48'2 3.9
2019-Aug-15 02:00N 38°30' W 027°46'2 4.2
2019-Aug-15 01:30N 38°31' W 027°43'2 4.7
2019-Aug-15 01:01N 38°31' W 027°40'3 5.1
2019-Aug-15 00:30N 38°32' W 027°37'3 5.4
2019-Aug-15 00:00N 38°33' W 027°34'3 5.3
2019-Aug-14 23:31N 38°34' W 027°31'3 5.6
2019-Aug-14 23:00N 38°35' W 027°27'3 5.5
2019-Aug-14 22:30N 38°36' W 027°24'3 5.4
2019-Aug-14 22:00N 38°36' W 027°21'3 6.6
2019-Aug-14 21:30N 38°37' W 027°17'3 6.3
2019-Aug-14 21:00N 38°38' W 027°13'1 1.0
2019-Aug-14 20:30N 38°39' W 027°13'0 0.0
2019-Aug-14 20:00N 38°39' W 027°13'0 0.0
2019-Aug-14 19:30N 38°39' W 027°13'0 0.0
2019-Aug-14 19:00N 38°39' W 027°13'0 0.0
2019-Aug-14 18:30N 38°39' W 027°13'0 0.0
2019-Aug-14 18:00N 38°39' W 027°13'0 0.0
2019-Aug-14 17:31N 38°39' W 027°13'0 0.0
2019-Aug-14 17:00N 38°39' W 027°13'0 0.0
2019-Aug-14 16:30N 38°39' W 027°13'0 0.0
2019-Aug-14 16:00N 38°39' W 027°13'0 0.0
2019-Aug-14 15:30N 38°39' W 027°13'0 0.0
2019-Aug-14 15:00N 38°39' W 027°13'0 0.0
2019-Aug-14 14:30N 38°39' W 027°13'0 0.0
2019-Aug-14 14:00N 38°39' W 027°13'0 0.0
2019-Aug-14 13:30N 38°39' W 027°13'0 0.0
2019-Aug-14 13:00N 38°39' W 027°13'0 0.0
2019-Aug-14 12:30N 38°39' W 027°13'0 0.0
2019-Aug-14 12:01N 38°39' W 027°13'0 0.0
2019-Aug-14 11:30N 38°39' W 027°13'0 0.0
2019-Aug-14 11:00N 38°39' W 027°13'0 0.0
2019-Aug-14 10:30N 38°39' W 027°13'0 0.1
2019-Aug-14 10:00N 38°39' W 027°13'0 0.1
2019-Aug-14 09:30N 38°39' W 027°13'0 0.0
2019-Aug-14 09:00N 38°39' W 027°13'0 0.0
2019-Aug-14 08:30N 38°39' W 027°13'0 0.1
2019-Aug-14 08:00N 38°39' W 027°13'1 1.4
2019-Aug-14 07:30N 38°38' W 027°12'  
Track history (hours):
 
Tides and Currents Weather Stations Pressure Air Temp Water Temp Dewpoint Dewpoint Depression Visibility Wind Speed Wind Dir Waves Ship Positions

Santa Maria Manuela

Last reported at 2019-Aug-24 07:00 UTC. Time now 2019-Aug-24 07:10 UTC.
Position N 38°57' W 029°33'.

Length 68 m; draft 4.3 m.

Type: Sailing vessel. MMSI: 255806006.

Date/timePositionNaut miles runAvg speedWind from/ knotsBaromVisibWave heightAir tempDewpointWater temp
2019-Aug-24 07:00N 38°57' W 029°33'3 5.4
2019-Aug-24 06:30N 38°56' W 029°30'3 5.3
2019-Aug-24 06:00N 38°55' W 029°27'3 5.3
2019-Aug-24 05:30N 38°54' W 029°24'3 5.4
2019-Aug-24 05:00N 38°53' W 029°21'3 5.2
2019-Aug-24 04:30N 38°52' W 029°17'3 5.4
2019-Aug-24 04:00N 38°51' W 029°14'3 5.4
2019-Aug-24 03:30N 38°50' W 029°11'3 6.0
2019-Aug-24 03:00N 38°49' W 029°07'3 5.8
2019-Aug-24 02:30N 38°48' W 029°04'3 5.7
2019-Aug-24 02:00N 38°47' W 029°00'3 5.6
2019-Aug-24 01:30N 38°46' W 028°57'3 5.4
2019-Aug-24 01:00N 38°45' W 028°54'3 5.5
2019-Aug-24 00:30N 38°44' W 028°50'3 5.4
2019-Aug-24 00:00N 38°43' W 028°47'3 5.3
2019-Aug-23 23:30N 38°42' W 028°44'3 5.3
2019-Aug-23 23:00N 38°42' W 028°41'3 5.6
2019-Aug-23 22:30N 38°41' W 028°37'2 5.0
2019-Aug-23 22:00N 38°39' W 028°35'3 5.0
2019-Aug-23 21:30N 38°36' W 028°34'2 4.8
2019-Aug-23 21:00N 38°34' W 028°34'2 4.0
2019-Aug-23 20:31N 38°32' W 028°35'2 3.2
2019-Aug-23 20:00N 38°32' W 028°37'0 0.0
2019-Aug-23 19:27N 38°32' W 028°37'0 0.0
2019-Aug-23 18:57N 38°32' W 028°37'0 0.0
2019-Aug-23 18:30N 38°32' W 028°37'0 0.0
2019-Aug-23 17:57N 38°32' W 028°37'0 0.0
2019-Aug-23 17:27N 38°32' W 028°37'0 0.0
2019-Aug-23 17:00N 38°32' W 028°37'0 0.0
2019-Aug-23 16:31N 38°32' W 028°37'0 0.0
2019-Aug-23 15:57N 38°32' W 028°37'0 0.0
2019-Aug-23 15:28N 38°32' W 028°37'0 0.0
2019-Aug-23 14:58N 38°32' W 028°37'0 0.0
2019-Aug-23 14:28N 38°32' W 028°37'0 0.0
2019-Aug-23 13:58N 38°32' W 028°37'0 0.0
2019-Aug-23 13:28N 38°32' W 028°37'0 0.0
2019-Aug-23 12:58N 38°32' W 028°37'0 0.0
2019-Aug-23 12:28N 38°32' W 028°37'0 0.0
2019-Aug-23 11:58N 38°32' W 028°37'0 0.0
2019-Aug-23 11:25N 38°32' W 028°37'0 0.0
2019-Aug-23 11:01N 38°32' W 028°37'0 0.0
2019-Aug-23 10:31N 38°32' W 028°37'0 0.0
2019-Aug-23 09:57N 38°32' W 028°37'0 0.0
2019-Aug-23 09:24N 38°32' W 028°37'0 0.0
2019-Aug-23 09:00N 38°32' W 028°37'0 0.0
2019-Aug-23 08:24N 38°32' W 028°37'0 0.0
2019-Aug-23 07:54N 38°32' W 028°37'0 0.0
2019-Aug-23 07:30N 38°32' W 028°37'1 2.0
2019-Aug-23 07:00N 38°32' W 028°36'2 3.0
2019-Aug-23 06:30N 38°33' W 028°35'2 3.1
2019-Aug-23 06:00N 38°34' W 028°34'2 3.1
2019-Aug-23 05:30N 38°35' W 028°33'1 2.9
2019-Aug-23 05:00N 38°36' W 028°31'1 2.6
2019-Aug-23 04:30N 38°36' W 028°29'1 2.3
2019-Aug-23 04:00N 38°36' W 028°28'1 2.1
2019-Aug-23 03:30N 38°37' W 028°27'1 2.0
2019-Aug-23 03:00N 38°37' W 028°26'1 2.1
2019-Aug-23 02:30N 38°37' W 028°24'1 2.1
2019-Aug-23 02:00N 38°38' W 028°23'1 2.3
2019-Aug-23 01:30N 38°38' W 028°22'1 2.4
2019-Aug-23 01:00N 38°38' W 028°20'1 2.2
2019-Aug-23 00:30N 38°39' W 028°19'2 3.3
2019-Aug-23 00:00N 38°39' W 028°17'2 3.5
2019-Aug-22 23:30N 38°40' W 028°15'2 4.1
2019-Aug-22 23:01N 38°40' W 028°12'0 0.5
2019-Aug-22 22:26N 38°40' W 028°12'0 0.0
2019-Aug-22 21:59N 38°40' W 028°12'0 0.0
2019-Aug-22 21:29N 38°40' W 028°12'0 0.0
2019-Aug-22 20:53N 38°40' W 028°12'0 0.0
2019-Aug-22 20:29N 38°40' W 028°12'0 0.0
2019-Aug-22 19:59N 38°40' W 028°12'0 0.0
2019-Aug-22 19:29N 38°40' W 028°12'0 0.0
2019-Aug-22 18:53N 38°40' W 028°12'0 0.0
2019-Aug-22 18:29N 38°40' W 028°12'0 0.0
2019-Aug-22 17:59N 38°40' W 028°12'0 0.0
2019-Aug-22 17:29N 38°40' W 028°12'0 0.0
2019-Aug-22 16:59N 38°40' W 028°12'0 0.0
2019-Aug-22 16:29N 38°40' W 028°12'0 0.0
2019-Aug-22 15:56N 38°40' W 028°12'0 0.0
2019-Aug-22 15:29N 38°40' W 028°12'0 0.0
2019-Aug-22 14:59N 38°40' W 028°12'0 0.0
2019-Aug-22 14:29N 38°40' W 028°12'0 0.0
2019-Aug-22 13:59N 38°40' W 028°12'0 0.0
2019-Aug-22 13:26N 38°40' W 028°12'0 0.0
2019-Aug-22 12:59N 38°40' W 028°12'0 0.0
2019-Aug-22 12:29N 38°40' W 028°12'0 0.0
2019-Aug-22 11:59N 38°40' W 028°12'0 0.0
2019-Aug-22 11:29N 38°40' W 028°12'0 0.0
2019-Aug-22 10:56N 38°40' W 028°12'0 0.0
2019-Aug-22 10:29N 38°40' W 028°12'0 0.0
2019-Aug-22 09:59N 38°40' W 028°12'0 0.0
2019-Aug-22 09:23N 38°40' W 028°12'0 0.0
2019-Aug-22 09:00N 38°40' W 028°12'0 0.0
2019-Aug-22 08:30N 38°40' W 028°12'0 0.1
2019-Aug-22 08:00N 38°40' W 028°12'1 2.0
2019-Aug-22 07:30N 38°40' W 028°13'1 2.2
2019-Aug-22 07:00N 38°40' W 028°14'1 2.3
2019-Aug-22 06:30N 38°40' W 028°16'1 2.1
2019-Aug-22 06:00N 38°41' W 028°17'1 2.0
2019-Aug-22 05:30N 38°40' W 028°16'2 3.4
2019-Aug-22 05:00N 38°39' W 028°14'2 3.6
2019-Aug-22 04:30N 38°39' W 028°12'1 2.8
2019-Aug-22 04:01N 38°38' W 028°10'1 2.1
2019-Aug-22 03:30N 38°38' W 028°09'1 2.1
2019-Aug-22 03:00N 38°37' W 028°08'1 2.1
2019-Aug-22 02:30N 38°36' W 028°07'1 2.2
2019-Aug-22 02:00N 38°36' W 028°06'1 2.1
2019-Aug-22 01:30N 38°36' W 028°04'1 2.4
2019-Aug-22 01:00N 38°35' W 028°03'1 2.7
2019-Aug-22 00:30N 38°34' W 028°02'1 2.6
2019-Aug-22 00:00N 38°33' W 028°00'1 2.7
2019-Aug-21 23:30N 38°33' W 027°59'1 3.0
2019-Aug-21 23:00N 38°31' W 027°58'1 2.9
2019-Aug-21 22:30N 38°30' W 027°58'2 3.4
2019-Aug-21 22:00N 38°28' W 027°57'1 2.8
2019-Aug-21 21:30N 38°27' W 027°57'1 1.3
2019-Aug-21 21:00N 38°27' W 027°58'1 1.0
2019-Aug-21 20:31N 38°27' W 027°57'1 2.7
2019-Aug-21 20:00N 38°27' W 027°56'2 3.2
2019-Aug-21 19:30N 38°25' W 027°55'2 3.6
2019-Aug-21 19:00N 38°24' W 027°53'2 3.7
2019-Aug-21 18:30N 38°22' W 027°52'2 3.9
2019-Aug-21 18:00N 38°21' W 027°51'2 3.4
2019-Aug-21 17:30N 38°20' W 027°49'2 4.0
2019-Aug-21 17:01N 38°18' W 027°48'2 3.9
2019-Aug-21 16:30N 38°19' W 027°45'2 4.3
2019-Aug-21 16:00N 38°19' W 027°43'2 4.3
2019-Aug-21 15:30N 38°21' W 027°40'2 4.1
2019-Aug-21 15:00N 38°21' W 027°38'2 4.0
2019-Aug-21 14:30N 38°22' W 027°35'2 4.8
2019-Aug-21 14:00N 38°22' W 027°33'3 5.2
2019-Aug-21 13:30N 38°23' W 027°29'3 5.2
2019-Aug-21 13:00N 38°24' W 027°26'3 5.4
2019-Aug-21 12:30N 38°26' W 027°23'3 5.3
2019-Aug-21 12:01N 38°27' W 027°20'3 5.4
2019-Aug-21 11:30N 38°28' W 027°17'3 5.3
2019-Aug-21 11:00N 38°29' W 027°14'3 5.2
2019-Aug-21 10:30N 38°30' W 027°11'5 4.6
2019-Aug-21 09:24N 38°32' W 027°05'2 5.2
2019-Aug-21 08:57N 38°33' W 027°02'2 4.7
2019-Aug-21 08:30N 38°33' W 026°60'3 5.2
2019-Aug-21 08:01N 38°31' W 026°57'2 4.4
2019-Aug-21 07:30N 38°30' W 026°55'2 4.5
2019-Aug-21 07:00N 38°29' W 026°52'2 4.8
2019-Aug-21 06:30N 38°27' W 026°50'2 4.8
2019-Aug-21 06:00N 38°25' W 026°48'3 5.1
2019-Aug-21 05:30N 38°23' W 026°46'2 4.8
2019-Aug-21 05:00N 38°22' W 026°44'2 4.7
2019-Aug-21 04:30N 38°20' W 026°42'2 4.5
2019-Aug-21 04:00N 38°19' W 026°39'2 4.5
2019-Aug-21 03:30N 38°17' W 026°37'2 4.6
2019-Aug-21 03:00N 38°16' W 026°35'2 5.0
2019-Aug-21 02:30N 38°14' W 026°32'2 4.6
2019-Aug-21 02:00N 38°13' W 026°30'2 4.8
2019-Aug-21 01:30N 38°11' W 026°28'2 4.8
2019-Aug-21 01:00N 38°10' W 026°25'2 4.5
2019-Aug-21 00:30N 38°09' W 026°23'2 4.3
2019-Aug-21 00:00N 38°07' W 026°21'2 3.9
2019-Aug-20 23:29N 38°06' W 026°19'2 3.9
2019-Aug-20 23:00N 38°05' W 026°17'2 4.1
2019-Aug-20 22:30N 38°04' W 026°15'2 4.6
2019-Aug-20 22:00N 38°03' W 026°12'2 4.4
2019-Aug-20 21:30N 38°01' W 026°10'2 4.4
2019-Aug-20 21:01N 38°00' W 026°08'2 3.9
2019-Aug-20 20:31N 37°59' W 026°06'2 4.3
2019-Aug-20 20:00N 37°58' W 026°03'2 4.0
2019-Aug-20 19:30N 37°56' W 026°01'3 5.9
2019-Aug-20 19:00N 37°54' W 025°59'3 6.6
2019-Aug-20 18:30N 37°52' W 025°56'3 6.0
2019-Aug-20 18:00N 37°50' W 025°53'3 5.7
2019-Aug-20 17:30N 37°48' W 025°51'3 6.3
2019-Aug-20 17:00N 37°45' W 025°48'3 6.5
2019-Aug-20 16:30N 37°44' W 025°44'3 6.4
2019-Aug-20 16:00N 37°43' W 025°41'2 3.2
2019-Aug-20 15:30N 37°44' W 025°40'0 0.3
2019-Aug-20 15:00N 37°44' W 025°40'0 0.0
2019-Aug-20 14:29N 37°44' W 025°40'0 0.0
2019-Aug-20 14:00N 37°44' W 025°40'0 0.0
2019-Aug-20 13:30N 37°44' W 025°40'0 0.0
2019-Aug-20 13:00N 37°44' W 025°40'0 0.0
2019-Aug-20 12:29N 37°44' W 025°40'0 0.0
2019-Aug-20 11:59N 37°44' W 025°40'0 0.0
2019-Aug-20 11:29N 37°44' W 025°40'0 0.0
2019-Aug-20 11:00N 37°44' W 025°40'0 0.0
2019-Aug-20 10:29N 37°44' W 025°40'0 0.0
2019-Aug-20 10:00N 37°44' W 025°40'0 0.0
2019-Aug-20 09:29N 37°44' W 025°40'0 0.0
2019-Aug-20 08:59N 37°44' W 025°40'0 0.0
2019-Aug-20 08:29N 37°44' W 025°40'0 0.0
2019-Aug-20 07:59N 37°44' W 025°40'0 0.0
2019-Aug-20 07:29N 37°44' W 025°40'0 0.0
2019-Aug-20 06:59N 37°44' W 025°40'0 0.0
2019-Aug-20 06:29N 37°44' W 025°40'0 0.0
2019-Aug-20 05:59N 37°44' W 025°40'0 0.0
2019-Aug-20 05:30N 37°44' W 025°40'0 0.0
2019-Aug-20 04:59N 37°44' W 025°40'0 0.0
2019-Aug-20 04:29N 37°44' W 025°40'0 0.0
2019-Aug-20 03:59N 37°44' W 025°40'0 0.0
2019-Aug-20 03:29N 37°44' W 025°40'0 0.0
2019-Aug-20 02:59N 37°44' W 025°40'0 0.0
2019-Aug-20 02:29N 37°44' W 025°40'0 0.0
2019-Aug-20 01:59N 37°44' W 025°40'0 0.0
2019-Aug-20 01:29N 37°44' W 025°40'0 0.0
2019-Aug-20 00:59N 37°44' W 025°40'0 0.0
2019-Aug-20 00:29N 37°44' W 025°40'0 0.0
2019-Aug-19 23:59N 37°44' W 025°40'0 0.0
2019-Aug-19 23:29N 37°44' W 025°40'0 0.0
2019-Aug-19 22:59N 37°44' W 025°40'0 0.0
2019-Aug-19 22:29N 37°44' W 025°40'0 0.0
2019-Aug-19 21:59N 37°44' W 025°40'0 0.0
2019-Aug-19 21:29N 37°44' W 025°40'0 0.0
2019-Aug-19 20:59N 37°44' W 025°40'0 0.0
2019-Aug-19 20:29N 37°44' W 025°40'0 0.0
2019-Aug-19 19:59N 37°44' W 025°40'0 0.0
2019-Aug-19 19:29N 37°44' W 025°40'0 0.0
2019-Aug-19 18:59N 37°44' W 025°40'0 0.0
2019-Aug-19 18:29N 37°44' W 025°40'0 0.0
2019-Aug-19 17:59N 37°44' W 025°40'0 0.0
2019-Aug-19 17:29N 37°44' W 025°40'0 0.0
2019-Aug-19 16:59N 37°44' W 025°40'0 0.0
2019-Aug-19 16:29N 37°44' W 025°40'0 0.0
2019-Aug-19 15:59N 37°44' W 025°40'0 0.0
2019-Aug-19 15:29N 37°44' W 025°40'0 0.0
2019-Aug-19 14:59N 37°44' W 025°40'0 0.0
2019-Aug-19 14:29N 37°44' W 025°40'0 0.0
2019-Aug-19 13:59N 37°44' W 025°40'0 0.0
2019-Aug-19 13:29N 37°44' W 025°40'0 0.0
2019-Aug-19 12:59N 37°44' W 025°40'0 0.0
2019-Aug-19 12:29N 37°44' W 025°40'0 0.0
2019-Aug-19 11:59N 37°44' W 025°40'0 0.0
2019-Aug-19 11:29N 37°44' W 025°40'0 0.0
2019-Aug-19 10:59N 37°44' W 025°40'0 0.0
2019-Aug-19 10:29N 37°44' W 025°40'0 0.0
2019-Aug-19 10:00N 37°44' W 025°40'1 1.1
2019-Aug-19 09:30N 37°44' W 025°39'1 1.3
2019-Aug-19 09:00N 37°44' W 025°39'2 4.4
2019-Aug-19 08:30N 37°43' W 025°42'2 4.5
2019-Aug-19 08:00N 37°42' W 025°44'2 4.6
2019-Aug-19 07:30N 37°42' W 025°47'2 4.3
2019-Aug-19 07:00N 37°43' W 025°50'3 5.5
2019-Aug-19 06:30N 37°45' W 025°53'2 4.7
2019-Aug-19 06:00N 37°46' W 025°55'3 5.8
2019-Aug-19 05:30N 37°43' W 025°57'3 5.4
2019-Aug-19 05:00N 37°41' W 025°59'2 4.1
2019-Aug-19 04:31N 37°41' W 026°02'3 5.0
2019-Aug-19 04:01N 37°42' W 026°05'2 4.0
2019-Aug-19 03:31N 37°42' W 026°08'2 4.4
2019-Aug-19 03:00N 37°43' W 026°10'2 4.8
2019-Aug-19 02:30N 37°45' W 026°12'2 4.8
2019-Aug-19 02:00N 37°47' W 026°14'2 4.1
2019-Aug-19 01:30N 37°48' W 026°16'2 3.9
2019-Aug-19 01:00N 37°49' W 026°18'3 5.1
2019-Aug-19 00:30N 37°51' W 026°20'2 4.1
2019-Aug-19 00:00N 37°52' W 026°22'2 3.8
2019-Aug-18 23:30N 37°54' W 026°24'2 4.0
2019-Aug-18 23:01N 37°55' W 026°26'2 4.4
2019-Aug-18 22:30N 37°57' W 026°28'2 4.5
2019-Aug-18 22:01N 37°58' W 026°30'2 4.2
2019-Aug-18 21:30N 38°00' W 026°31'2 4.4
2019-Aug-18 21:00N 38°02' W 026°33'3 5.5
2019-Aug-18 20:30N 38°04' W 026°35'3 5.2
2019-Aug-18 20:00N 38°05' W 026°38'2 4.9
2019-Aug-18 19:30N 38°07' W 026°40'2 4.7
2019-Aug-18 19:00N 38°08' W 026°43'2 4.8
2019-Aug-18 18:30N 38°10' W 026°45'2 3.6
2019-Aug-18 18:00N 38°11' W 026°46'2 4.0
2019-Aug-18 17:30N 38°13' W 026°45'2 4.2
2019-Aug-18 17:00N 38°15' W 026°44'2 3.9
2019-Aug-18 16:30N 38°17' W 026°43'2 4.3
2019-Aug-18 16:00N 38°19' W 026°43'2 4.1
2019-Aug-18 15:30N 38°21' W 026°43'2 3.7
2019-Aug-18 15:00N 38°23' W 026°44'2 3.3
2019-Aug-18 14:30N 38°25' W 026°45'2 3.1
2019-Aug-18 14:00N 38°26' W 026°45'2 3.8
2019-Aug-18 13:30N 38°28' W 026°46'2 3.2
2019-Aug-18 13:01N 38°29' W 026°46'2 3.2
2019-Aug-18 12:30N 38°31' W 026°47'2 3.5
2019-Aug-18 12:00N 38°33' W 026°47'2 4.4
2019-Aug-18 11:30N 38°35' W 026°48'2 4.0
2019-Aug-18 11:00N 38°37' W 026°49'2 3.4
2019-Aug-18 10:30N 38°38' W 026°49'1 2.0
2019-Aug-18 09:59N 38°39' W 026°50'1 3.0
2019-Aug-18 09:30N 38°40' W 026°51'2 4.7
2019-Aug-18 09:00N 38°41' W 026°54'14 4.7
2019-Aug-18 05:59N 38°50' W 027°09'2 4.0
2019-Aug-18 05:30N 38°50' W 027°11'2 4.0
2019-Aug-18 05:00N 38°51' W 027°14'2 3.9
2019-Aug-18 04:30N 38°51' W 027°16'2 4.2
2019-Aug-18 04:00N 38°52' W 027°19'2 4.4
2019-Aug-18 03:30N 38°53' W 027°21'2 4.1
2019-Aug-18 03:00N 38°53' W 027°24'2 4.3
2019-Aug-18 02:30N 38°54' W 027°26'3 5.1
2019-Aug-18 02:00N 38°55' W 027°29'3 5.2
2019-Aug-18 01:30N 38°56' W 027°32'3 5.3
2019-Aug-18 01:00N 38°57' W 027°35'3 5.0
2019-Aug-18 00:30N 38°58' W 027°39'2 4.6
2019-Aug-18 00:01N 38°58' W 027°41'2 4.5
2019-Aug-17 23:30N 38°59' W 027°44'2 4.4
2019-Aug-17 23:00N 38°60' W 027°47'2 4.6
2019-Aug-17 22:30N 39°01' W 027°50'3 4.6
2019-Aug-17 21:54N 39°02' W 027°53'2 5.0
2019-Aug-17 21:30N 39°02' W 027°55'2 4.0
2019-Aug-17 20:55N 39°03' W 027°58'0 0.0
2019-Aug-17 20:29N 39°03' W 027°58'0 0.0
2019-Aug-17 19:59N 39°03' W 027°58'0 0.0
2019-Aug-17 19:23N 39°03' W 027°58'0 0.0
2019-Aug-17 18:53N 39°03' W 027°58'0 0.0
2019-Aug-17 18:20N 39°03' W 027°58'0 0.0
2019-Aug-17 17:29N 39°03' W 027°58'0 0.0
2019-Aug-17 16:59N 39°03' W 027°58'0 0.0
2019-Aug-17 16:29N 39°03' W 027°58'0 0.0
2019-Aug-17 15:56N 39°03' W 027°58'0 0.0
2019-Aug-17 15:29N 39°03' W 027°58'0 0.0
2019-Aug-17 14:56N 39°03' W 027°58'0 0.0
2019-Aug-17 14:23N 39°03' W 027°58'0 0.0
2019-Aug-17 13:56N 39°03' W 027°58'0 0.0
2019-Aug-17 13:29N 39°03' W 027°58'0 0.0
2019-Aug-17 12:59N 39°03' W 027°58'0 0.0
2019-Aug-17 12:26N 39°03' W 027°58'0 0.0
2019-Aug-17 11:59N 39°03' W 027°58'0 0.0
2019-Aug-17 11:29N 39°03' W 027°58'0 0.0
2019-Aug-17 10:55N 39°03' W 027°58'0 0.0
2019-Aug-17 10:25N 39°03' W 027°58'0 0.0
2019-Aug-17 09:55N 39°03' W 027°58'0 0.0
2019-Aug-17 09:29N 39°03' W 027°58'0 0.0
2019-Aug-17 09:00N 39°03' W 027°58'0 0.0
2019-Aug-17 08:30N 39°03' W 027°58'2 3.1
2019-Aug-17 08:00N 39°03' W 027°56'1 2.3
2019-Aug-17 07:30N 39°02' W 027°55'1 1.4
2019-Aug-17 07:00N 39°01' W 027°55'1 1.9
2019-Aug-17 06:30N 39°00' W 027°55'1 2.5
2019-Aug-17 06:00N 38°59' W 027°56'2 3.5
2019-Aug-17 05:30N 38°59' W 027°58'2 4.2
2019-Aug-17 05:01N 38°57' W 028°00'2 3.9
2019-Aug-17 04:31N 38°56' W 028°02'2 3.8
2019-Aug-17 04:00N 38°55' W 028°04'2 3.8
2019-Aug-17 03:30N 38°54' W 028°06'2 4.1
2019-Aug-17 03:00N 38°53' W 028°09'2 4.2
2019-Aug-17 02:30N 38°52' W 028°11'2 4.8
2019-Aug-17 02:00N 38°51' W 028°14'3 5.4
2019-Aug-17 01:30N 38°50' W 028°17'3 5.4
2019-Aug-17 01:00N 38°48' W 028°19'3 5.7
2019-Aug-17 00:30N 38°46' W 028°22'3 5.9
2019-Aug-17 00:00N 38°43' W 028°24'3 6.1
2019-Aug-16 23:30N 38°41' W 028°26'4 6.9
2019-Aug-16 23:00N 38°38' W 028°29'3 7.0
2019-Aug-16 22:30N 38°36' W 028°32'3 6.6
2019-Aug-16 22:00N 38°33' W 028°35'2 4.5
2019-Aug-16 21:30N 38°32' W 028°37'0 0.0
2019-Aug-16 17:33N 38°32' W 028°37'0 0.0
2019-Aug-16 17:24N 38°32' W 028°37'0 0.0
2019-Aug-16 17:00N 38°32' W 028°37'0 0.0
2019-Aug-16 16:30N 38°32' W 028°37'0 0.0
2019-Aug-16 15:54N 38°32' W 028°37'0 0.0
2019-Aug-16 15:30N 38°32' W 028°37'0 0.0
2019-Aug-16 15:00N 38°32' W 028°37'0 0.0
2019-Aug-16 14:30N 38°32' W 028°37'0 0.0
2019-Aug-16 13:57N 38°32' W 028°37'0 0.0
2019-Aug-16 13:30N 38°32' W 028°37'0 0.0
2019-Aug-16 13:00N 38°32' W 028°37'0 0.0
2019-Aug-16 12:30N 38°32' W 028°37'0 0.0
2019-Aug-16 12:00N 38°32' W 028°37'0 0.0
2019-Aug-16 11:30N 38°32' W 028°37'0 0.0
2019-Aug-16 10:57N 38°32' W 028°37'0 0.0
2019-Aug-16 10:30N 38°32' W 028°37'0 0.0
2019-Aug-16 10:00N 38°32' W 028°37'0 0.0
2019-Aug-16 09:24N 38°32' W 028°37'0 0.0
2019-Aug-16 09:00N 38°32' W 028°37'0 0.0
2019-Aug-16 08:27N 38°32' W 028°37'0 0.0
2019-Aug-16 07:57N 38°32' W 028°37'0 0.2
2019-Aug-16 07:30N 38°32' W 028°37'1 2.2
2019-Aug-16 07:00N 38°32' W 028°36'1 2.2
2019-Aug-16 06:30N 38°32' W 028°35'2 3.3
2019-Aug-16 06:00N 38°34' W 028°34'1 1.9
2019-Aug-16 05:30N 38°35' W 028°33'1 2.3
2019-Aug-16 05:00N 38°35' W 028°32'2 3.3
2019-Aug-16 04:31N 38°36' W 028°30'2 3.4
2019-Aug-16 04:01N 38°37' W 028°28'2 3.2
2019-Aug-16 03:31N 38°37' W 028°26'1 2.4
2019-Aug-16 03:00N 38°37' W 028°25'1 2.2
2019-Aug-16 02:30N 38°38' W 028°23'1 2.8
2019-Aug-16 02:00N 38°38' W 028°22'1 1.9
2019-Aug-16 01:30N 38°38' W 028°21'1 1.9
2019-Aug-16 01:00N 38°39' W 028°19'1 2.0
2019-Aug-16 00:30N 38°39' W 028°18'1 2.6
2019-Aug-16 00:00N 38°39' W 028°17'1 3.0
2019-Aug-15 23:30N 38°40' W 028°15'2 3.1
2019-Aug-15 23:00N 38°40' W 028°13'1 1.3
2019-Aug-15 22:29N 38°40' W 028°12'0 0.0
2019-Aug-15 21:59N 38°40' W 028°12'0 0.0
2019-Aug-15 21:29N 38°40' W 028°12'0 0.0
2019-Aug-15 20:59N 38°40' W 028°12'0 0.0
2019-Aug-15 20:29N 38°40' W 028°12'0 0.0
2019-Aug-15 19:59N 38°40' W 028°12'0 0.0
2019-Aug-15 19:29N 38°40' W 028°12'0 0.0
2019-Aug-15 18:56N 38°40' W 028°12'0 0.0
2019-Aug-15 18:29N 38°40' W 028°12'0 0.0
2019-Aug-15 17:59N 38°40' W 028°12'0 0.0
2019-Aug-15 17:29N 38°40' W 028°12'0 0.0
2019-Aug-15 16:56N 38°40' W 028°12'0 0.0
2019-Aug-15 16:29N 38°40' W 028°12'0 0.0
2019-Aug-15 15:59N 38°40' W 028°12'0 0.0
2019-Aug-15 15:23N 38°40' W 028°12'0 0.0
2019-Aug-15 14:59N 38°40' W 028°12'0 0.1
2019-Aug-15 14:29N 38°40' W 028°12'0 0.0
2019-Aug-15 13:59N 38°40' W 028°12'0 0.1
2019-Aug-15 13:29N 38°40' W 028°12'0 0.0
2019-Aug-15 12:56N 38°40' W 028°12'0 0.0
2019-Aug-15 12:29N 38°40' W 028°12'0 0.0
2019-Aug-15 11:59N 38°40' W 028°12'0 0.0
2019-Aug-15 11:29N 38°40' W 028°12'0 0.0
2019-Aug-15 10:59N 38°40' W 028°12'0 0.1
2019-Aug-15 10:29N 38°40' W 028°12'0 0.0
2019-Aug-15 09:59N 38°40' W 028°12'0 0.0
2019-Aug-15 09:29N 38°40' W 028°12'0 0.0
2019-Aug-15 08:59N 38°40' W 028°12'0 0.0
2019-Aug-15 08:30N 38°40' W 028°12'0 0.9
2019-Aug-15 08:00N 38°40' W 028°12'2 3.8
2019-Aug-15 07:30N 38°38' W 028°11'2 4.4
2019-Aug-15 07:00N 38°37' W 028°09'2 3.7
2019-Aug-15 06:30N 38°36' W 028°07'2 3.6
2019-Aug-15 06:00N 38°35' W 028°05'2 3.2
2019-Aug-15 05:30N 38°34' W 028°03'2 3.8
2019-Aug-15 05:00N 38°33' W 028°01'2 4.0
2019-Aug-15 04:30N 38°33' W 027°58'2 4.4
2019-Aug-15 04:00N 38°32' W 027°56'2 4.5
2019-Aug-15 03:30N 38°31' W 027°53'2 4.4
2019-Aug-15 03:00N 38°30' W 027°51'2 4.1
2019-Aug-15 02:30N 38°30' W 027°48'2 3.9
2019-Aug-15 02:00N 38°30' W 027°46'2 4.2
2019-Aug-15 01:30N 38°31' W 027°43'2 4.7
2019-Aug-15 01:01N 38°31' W 027°40'3 5.1
2019-Aug-15 00:30N 38°32' W 027°37'3 5.4
2019-Aug-15 00:00N 38°33' W 027°34'3 5.3
2019-Aug-14 23:31N 38°34' W 027°31'3 5.6
2019-Aug-14 23:00N 38°35' W 027°27'3 5.5
2019-Aug-14 22:30N 38°36' W 027°24'3 5.4
2019-Aug-14 22:00N 38°36' W 027°21'3 6.6
2019-Aug-14 21:30N 38°37' W 027°17'3 6.3
2019-Aug-14 21:00N 38°38' W 027°13'1 1.0
2019-Aug-14 20:30N 38°39' W 027°13'0 0.0
2019-Aug-14 20:00N 38°39' W 027°13'0 0.0
2019-Aug-14 19:30N 38°39' W 027°13'0 0.0
2019-Aug-14 19:00N 38°39' W 027°13'0 0.0
2019-Aug-14 18:30N 38°39' W 027°13'0 0.0
2019-Aug-14 18:00N 38°39' W 027°13'0 0.0
2019-Aug-14 17:31N 38°39' W 027°13'0 0.0
2019-Aug-14 17:00N 38°39' W 027°13'0 0.0
2019-Aug-14 16:30N 38°39' W 027°13'0 0.0
2019-Aug-14 16:00N 38°39' W 027°13'0 0.0
2019-Aug-14 15:30N 38°39' W 027°13'0 0.0
2019-Aug-14 15:00N 38°39' W 027°13'0 0.0
2019-Aug-14 14:30N 38°39' W 027°13'0 0.0
2019-Aug-14 14:00N 38°39' W 027°13'0 0.0
2019-Aug-14 13:30N 38°39' W 027°13'0 0.0
2019-Aug-14 13:00N 38°39' W 027°13'0 0.0
2019-Aug-14 12:30N 38°39' W 027°13'0 0.0
2019-Aug-14 12:01N 38°39' W 027°13'0 0.0
2019-Aug-14 11:30N 38°39' W 027°13'0 0.0
2019-Aug-14 11:00N 38°39' W 027°13'0 0.0
2019-Aug-14 10:30N 38°39' W 027°13'0 0.1
2019-Aug-14 10:00N 38°39' W 027°13'0 0.1
2019-Aug-14 09:30N 38°39' W 027°13'0 0.0
2019-Aug-14 09:00N 38°39' W 027°13'0 0.0
2019-Aug-14 08:30N 38°39' W 027°13'0 0.1
2019-Aug-14 08:00N 38°39' W 027°13'1 1.4
2019-Aug-14 07:30N 38°38' W 027°12'  

Dump ship's entire track history